createdAt,value
2023-02-12T00:11:31.734Z,101783.17
2023-02-12T00:26:36.662Z,101817.54
2023-02-12T00:41:39.792Z,101837.64
2023-02-12T00:56:42.943Z,101858.85
2023-02-12T01:11:46.094Z,101859.52
2023-02-12T01:26:49.389Z,101873.11
2023-02-12T01:41:52.507Z,101912.98
2023-02-12T01:56:56.145Z,101944.30
2023-02-12T02:12:18.382Z,101974.67
2023-02-12T02:27:24.623Z,101986.17
2023-02-12T02:42:41.763Z,101998.97
2023-02-12T02:57:52.060Z,102006.65
2023-02-12T03:13:09.588Z,102001.70
2023-02-12T03:28:26.742Z,102017.84
2023-02-12T03:43:34.940Z,102046.55
2023-02-12T03:58:40.044Z,102072.23
2023-02-12T04:14:05.804Z,102092.21
2023-02-12T04:29:35.021Z,102102.06
2023-02-12T04:44:41.133Z,102115.41
2023-02-12T04:59:44.243Z,102131.64
2023-02-12T05:14:47.384Z,102142.59
2023-02-12T05:29:50.936Z,102158.28
2023-02-12T05:44:54.226Z,102180.27
2023-02-12T05:59:57.371Z,102200.35
2023-02-12T06:15:00.629Z,102228.01
2023-02-12T06:30:04.083Z,102248.92
2023-02-12T06:45:07.666Z,102258.70
2023-02-12T07:00:12.035Z,102273.14
2023-02-12T07:15:15.317Z,102278.72
2023-02-12T07:30:19.914Z,102275.33
2023-02-12T07:45:23.754Z,102307.17
2023-02-12T08:00:26.990Z,102313.45
2023-02-12T08:15:32.764Z,102322.80
2023-02-12T08:30:36.232Z,102328.50
2023-02-12T08:45:39.486Z,102333.37
2023-02-12T09:00:43.056Z,102328.15
2023-02-12T09:15:46.696Z,102317.52
2023-02-12T09:30:50.188Z,102324.83
2023-02-12T09:46:05.921Z,102344.92
2023-02-12T10:01:14.647Z,102345.84
2023-02-12T10:16:24.709Z,102344.42
2023-02-12T10:31:33.080Z,102336.33
2023-02-12T10:46:36.539Z,102336.74
2023-02-12T11:01:41.558Z,102326.73
2023-02-12T11:16:57.573Z,102321.13
2023-02-12T11:32:08.791Z,102311.77
2023-02-12T11:47:20.223Z,102303.61
2023-02-12T12:02:36.401Z,102285.34
2023-02-12T12:18:12.018Z,102279.88
2023-02-12T12:33:39.233Z,102269.27
2023-02-12T12:48:54.689Z,102258.25
2023-02-12T13:04:37.110Z,102240.38
2023-02-12T13:19:54.687Z,102243.09
2023-02-12T13:34:59.855Z,102249.13
2023-02-12T13:50:16.127Z,102239.85
2023-02-12T14:05:26.983Z,102232.34
2023-02-12T14:20:39.027Z,102234.46
2023-02-12T14:35:44.791Z,102222.84
2023-02-12T14:50:52.261Z,102241.39
2023-02-12T15:06:20.456Z,102244.34
2023-02-12T15:21:25.854Z,102208.58
2023-02-12T15:36:31.507Z,102190.84
2023-02-12T15:51:41.839Z,102208.91
2023-02-12T16:06:45.307Z,102209.70
2023-02-12T16:22:14.563Z,102226.13
2023-02-12T16:37:51.472Z,102219.27
2023-02-12T16:53:07.626Z,102197.48
2023-02-12T17:08:16.688Z,102180.27
2023-02-12T17:23:20.197Z,102165.43
2023-02-12T17:38:26.061Z,102165.01
2023-02-12T17:53:29.522Z,102161.92
2023-02-12T18:08:33.577Z,102154.94
2023-02-12T18:23:37.860Z,102146.98
2023-02-12T18:38:42.660Z,102135.54
2023-02-12T18:53:46.665Z,102124.99
2023-02-12T19:08:54.070Z,102120.52
2023-02-12T19:23:58.885Z,102117.34
2023-02-12T19:39:04.094Z,102104.00
2023-02-12T19:54:08.609Z,102091.96
2023-02-12T20:09:13.480Z,102090.23
2023-02-12T20:24:17.076Z,102079.62
2023-02-12T20:39:21.326Z,102075.23
2023-02-12T20:54:26.333Z,102074.84
2023-02-12T21:09:29.773Z,102076.48
2023-02-12T21:24:34.160Z,102065.48
2023-02-12T21:39:37.449Z,102067.87
2023-02-12T21:54:40.812Z,102073.90
2023-02-12T22:09:44.643Z,102071.48
2023-02-12T22:24:47.736Z,102075.11
2023-02-12T22:39:50.949Z,102072.52
2023-02-12T22:54:54.606Z,102063.17
2023-02-12T23:09:58.276Z,102042.93
2023-02-12T23:25:01.495Z,102032.59
2023-02-12T23:40:06.807Z,102020.09
2023-02-12T23:55:09.948Z,101999.77
